Rifle, CO

9:50 AM MDT en Septiembre 19, 2014 (GMT -0600)
Taughenbaugh Mesa | Change Station
CLOSE
Current Station
Estación meteorológica personal
Location: Rifle, CO
Altura: 5650 ft
Estaciones meteorológicas cercanas

Alt 5650 ft 39.50 °N, 107.85 °W | Updated 18 seconds ago

Clear
Despejado
63.0 ° F
Sensación térmica 63.0 ° F
N
0.0
Viento Variable Viento desde NE
Gusts 0.0 mph

Hoy
Alta -- | Baja -- ° F
--% Posibilidad de precipitaciones
Ayer
Alta -- | Baja -- ° F
Precip. -- pul
6:56 AM 7:13 PM
Creciente menguante, 18% visible
Presión 29.96 pul
Visibilidad 10.0 Millas
Nubes Despejado
Punto de rocío 44 ° F
Humedad 50%
Precipitaciones 0.00 pul
Espesor de la nieve 18 in , 10 in , 0 in
UV 2 de una escala de 12
Polen 5.50 de una escala de 12
Calidad del aire No disponible.
Flu Activity No disponible.
METAR KRIL 191453Z AUTO 29004KT 10SM CLR 14/08 A3012 RMK AO2 SLP144 T01390078 53014

More Conditions Fewer Conditions

Presión 29.96 pul
Visibilidad 10.0 Millas
Nubes Despejado
Punto de rocío 44 ° F
Humedad 50%
Precipitaciones 0.00 pul
Espesor de la nieve 18 in , 10 in , 0 in
UV 2 de una escala de 12
Polen 5.50 de una escala de 12
Calidad del aire No disponible.
Flu Activity No disponible.
METAR KRIL 191453Z AUTO 29004KT 10SM CLR 14/08 A3012 RMK AO2 SLP144 T01390078 53014

More Conditions Fewer Conditions

10-Day Weather Forecast

Almanac

Astronomía

Sep. 19, 2014 Salida Puesta
Hora real 6:56 AM MDT 7:13 PM MDT
Crepúsculo civil 6:29 AM MDT 7:39 PM MDT
Crepúsculo náutico 5:57 AM MDT 8:11 PM MDT
Crepúsculo astronómico 5:25 AM MDT 8:43 PM MDT
Luna 2:44 AM MDT 4:42 PM MDT
Horas de luz 13h 10m
Horas de luz
12h 16m
Tomorrow will be 2m 34s shorter.
Creciente menguante, 18% of the Moon is Illuminated
Hoy
Creciente menguante
Sep 24
Nueva
Oct 1
Cuarto creciente
Oct 8
Luna llena
Oct 15
Cuarto menguante

Extremos de hoy

Máximos del estado Bajos del estado

Community

WunderPhotos

Upload Photos

1,754,637 ¡fotos cargadas!

WunderBlogs® & News

By Dr. Jeff Masters
Director of Meteorology, Weather Underground
By Kari Strenfel
Meteorologist, Weather Underground
By Christopher C. Burt
Weather Historian, Weather Underground
September 19, 2014
September 19, 2014
September 19, 2014

Nearby

Grosos de nieve

Estación Profundido Altura
Rawah 18 in 9020 ft
Mancos 10 in 10000 ft
Idarado 0 in 9800 ft
Buffalo Park 0 in 9240 ft
Grayback 1 in 11620 ft

Actividad de terremotos

Ciudad Distance Mag. Tiempo y dato
No hay informes recientes de la actividad sísmica.
Magnitud mínima muestra es 2,5.

Temperaturas de aguas costeras

Lugar Temperatura
Sin partes meteorológicos de las estaciones

Estaciones meteorológicas cercanas